CYYECYQH

Guest
Details From CYYE - FORT NELSON
To CYQH - WATSON LAKE
Flight Number -
Tags decoded
Created
Modified
Stats Distance 205 nm / 379 km
Max Altitude 0 ft / 0 m
Waypoints 2
Social Downloads 1
Likes 0
Share VATSIM

Download

Looking for another format? Having issues loading an existing format? Contact us
Advertisement - Login to hide

Notes

Requested: CYYE CYQH

Route

CYYE CYQH

ID Type Via Altitude Latitude Longitude Leg Dist Tot Dist Heading (true) Name
O CYYE APT - 0 ft / 0 m 58.83625˚ -122.59493˚ - 0 nm - FORT NELSON
O CYQH APT - 0 ft / 0 m 60.11750˚ -128.82056˚ 204 nm 204 nm 295° / 289° WATSON LAKE

Altitude Profile

Advertisement - Login to hide

Weather


0- 5 10 15 20 25 30 35+ Temperature / ° C

Clouds and Precipitation
Forecast for 2018-05-26 06:00 UTC. Updated 5 hours ago

Ground ~20,000 ft ~40,000 ft Winds

CYYE

Details ICAO CYYE (YYE)
Name FORT NELSON
Region Canada
Timezone America/Vancouver (UTC-7.0)
Stats Elevation 1,253 ft / 382 m (AMSL)
Location 58.836250° -122.594928°
Runways 2
Magnetic Variation 18.581° E

METAR

CYYE 261000Z 21005KT 8SM -RA OVC042 09/08 A2969 RMK SC8 SLP063

Decode

TAF

TAF CYYE 260639Z 2607/2619 29006KT P6SM SCT030 OVC060 TEMPO 2607/2610 5SM SHRA BR OVC030 FM261000 28008KT P6SM SCT080 BKN240 FM261500 28010G20KT P6SM FEW080 RMK NXT FCST BY 261300Z

Decode

Departure Runways

ID Width Length Bearing (true) Bearing (mag) Surface Threshold Offset Overrun Length
03 200 ft / 61 m 6,365 ft / 1,940 m 57.20° 38.62° Asphalt 0 ft / 0 m 0 ft / 0 m
07 77 ft / 23 m 4,055 ft / 1,236 m 104.46° 85.88° Asphalt 0 ft / 0 m 500 ft / 152 m
21 200 ft / 61 m 6,365 ft / 1,940 m 237.23° 218.65° Asphalt 0 ft / 0 m 0 ft / 0 m
25 77 ft / 23 m 4,055 ft / 1,236 m 284.48° 265.90° Asphalt 0 ft / 0 m 0 ft / 0 m

CYQH

Details ICAO CYQH (YQH)
Name WATSON LAKE
Region Canada
Timezone America/Whitehorse (UTC-7.0)
Stats Elevation 2,255 ft / 687 m (AMSL)
Location 60.117502° -128.820560°
Runways 1
Magnetic Variation 19.649° E

METAR

CYQH 261000Z 00000KT 20SM FEW100 00/M01 A2973 RMK AC2 SLP093

Decode

TAF

TAF CYQH 260538Z 2606/2618 VRB03KT P6SM FEW060 BKN100 FM261200 VRB03KT P6SM SCT070 RMK NXT FCST BY 261200Z

Decode

Destination Runways

ID Width Length Bearing (true) Bearing (mag) Surface Threshold Offset Overrun Length
08 150 ft / 46 m 5,462 ft / 1,665 m 109.49° 89.84° Asphalt 0 ft / 0 m 0 ft / 0 m
26 150 ft / 46 m 5,462 ft / 1,665 m 289.51° 269.86° Asphalt 0 ft / 0 m 0 ft / 0 m